Time;durP1;ratioP1;P1;durP2;ratioP2;P2;SDS_P1;SDS_P2;PMS_P1;PMS_P2;Temp;Humidity;BMP_temperature;BMP_pressure;BME280_temperature;BME280_humidity;BME280_pressure;Samples;Min_cycle;Max_cycle;Signal;HPM_P1;HPM_P2
2023/05/18 00:02:05;;;;;;;;;;;20.80;39.80;;;;;;5068247;28;20433;-54
2023/05/18 00:04:32;;;;;;;;;;;20.80;40.10;;;;;;5062909;28;19912;-54
2023/05/18 00:07:02;;;;;;;;;;;20.80;40.00;;;;;;5089455;28;19943;-54
2023/05/18 00:09:28;;;;;;;;;;;20.70;39.90;;;;;;5087288;28;19970;-53
2023/05/18 00:11:53;;;;;;;;;;;20.80;39.60;;;;;;5091259;28;20030;-53
2023/05/18 00:14:19;;;;;;;;;;;20.80;39.70;;;;;;5092683;28;20431;-54
2023/05/18 00:16:45;;;;;;;;;;;20.70;39.70;;;;;;5093248;28;19916;-54
2023/05/18 00:19:13;;;;;;;;;;;20.70;39.80;;;;;;5091067;28;19912;-54
2023/05/18 00:21:42;;;;;;;;;;;20.70;39.60;;;;;;5074664;28;19966;-54
2023/05/18 00:24:09;;;;;;;;;;;20.70;39.80;;;;;;5073560;28;19965;-54
2023/05/18 00:26:36;;;;;;;;;;;20.70;39.80;;;;;;5086741;28;19969;-53
2023/05/18 00:29:01;;;;;;;;;;;20.70;40.00;;;;;;5076929;28;19912;-53
2023/05/18 00:31:27;;;;;;;;;;;20.70;39.80;;;;;;5079428;28;19912;-54
2023/05/18 00:33:52;;;;;;;;;;;20.60;40.00;;;;;;5084660;28;19947;-53
2023/05/18 00:36:18;;;;;;;;;;;20.70;40.10;;;;;;5041633;28;20295;-54
2023/05/18 00:38:43;;;;;;;;;;;20.70;40.10;;;;;;5084664;28;20581;-54
2023/05/18 00:41:08;;;;;;;;;;;20.60;39.90;;;;;;5092030;28;19916;-54
2023/05/18 00:43:34;;;;;;;;;;;20.60;40.10;;;;;;5082431;28;19916;-54
2023/05/18 00:46:00;;;;;;;;;;;20.60;40.10;;;;;;5086184;28;19920;-54
2023/05/18 00:48:25;;;;;;;;;;;20.60;40.00;;;;;;5080846;28;19919;-53
2023/05/18 00:50:50;;;;;;;;;;;20.60;40.30;;;;;;5091428;28;20366;-54
2023/05/18 00:53:16;;;;;;;;;;;20.60;39.90;;;;;;5062468;28;19923;-54
2023/05/18 00:55:41;;;;;;;;;;;20.50;39.80;;;;;;5057128;28;19940;-54
2023/05/18 00:58:07;;;;;;;;;;;20.60;40.00;;;;;;5090311;28;19996;-54
2023/05/18 01:00:32;;;;;;;;;;;20.60;40.20;;;;;;5074453;28;19970;-54
2023/05/18 01:02:58;;;;;;;;;;;20.50;39.90;;;;;;5088670;28;19912;-54
2023/05/18 01:05:23;;;;;;;;;;;20.50;40.00;;;;;;5091450;28;20750;-54
2023/05/18 01:07:49;;;;;;;;;;;20.50;40.30;;;;;;5090650;28;20007;-54
2023/05/18 01:10:15;;;;;;;;;;;20.50;40.00;;;;;;5085028;28;19908;-54
2023/05/18 01:12:47;;;;;;;;;;;20.50;40.00;;;;;;5071825;28;20463;-54
2023/05/18 01:15:13;;;;;;;;;;;20.50;39.90;;;;;;5074888;28;19913;-54
2023/05/18 01:17:50;;;;;;;;;;;20.50;39.60;;;;;;5065020;28;19969;-54
2023/05/18 01:20:36;;;;;;;;;;;20.50;39.70;;;;;;5071235;28;19912;-54
2023/05/18 01:23:19;;;;;;;;;;;20.50;39.60;;;;;;5081470;28;20273;-53
2023/05/18 01:25:47;;;;;;;;;;;20.50;39.70;;;;;;5074581;28;19919;-54
2023/05/18 01:28:13;;;;;;;;;;;20.60;40.20;;;;;;5076930;28;19912;-54
2023/05/18 01:30:41;;;;;;;;;;;20.60;39.80;;;;;;5064188;28;19919;-53
2023/05/18 01:33:08;;;;;;;;;;;20.60;39.90;;;;;;5067060;28;19931;-54
2023/05/18 01:35:33;;;;;;;;;;;20.70;39.50;;;;;;5077691;28;19931;-54
2023/05/18 01:37:59;;;;;;;;;;;20.70;39.50;;;;;;5085022;28;20404;-54
2023/05/18 01:40:25;;;;;;;;;;;20.80;39.40;;;;;;5085833;28;19912;-54
2023/05/18 01:42:50;;;;;;;;;;;20.80;39.20;;;;;;5089399;28;19970;-53
2023/05/18 01:45:20;;;;;;;;;;;20.90;39.30;;;;;;5082893;28;19913;-54
2023/05/18 01:47:45;;;;;;;;;;;20.90;39.60;;;;;;5082773;28;19939;-53
2023/05/18 01:50:15;;;;;;;;;;;20.80;39.40;;;;;;5085665;28;19920;-54
2023/05/18 01:52:42;;;;;;;;;;;20.90;39.60;;;;;;5061970;28;19924;-53
2023/05/18 01:55:07;;;;;;;;;;;20.90;39.50;;;;;;5073351;28;19920;-54
2023/05/18 01:57:33;;;;;;;;;;;20.90;39.20;;;;;;5072095;28;20268;-53
2023/05/18 01:59:59;;;;;;;;;;;20.90;39.10;;;;;;5089352;28;20351;-54
2023/05/18 02:02:25;;;;;;;;;;;21.00;38.90;;;;;;5065751;28;19959;-53
2023/05/18 02:04:51;;;;;;;;;;;21.00;38.80;;;;;;5091274;28;19916;-54
2023/05/18 02:07:16;;;;;;;;;;;21.00;38.80;;;;;;5088904;28;20448;-54
2023/05/18 02:09:43;;;;;;;;;;;21.00;38.70;;;;;;5085139;28;20014;-54
2023/05/18 02:12:08;;;;;;;;;;;21.00;38.70;;;;;;5089491;28;20368;-54
2023/05/18 02:14:34;;;;;;;;;;;21.00;38.70;;;;;;5090378;28;19920;-54
2023/05/18 02:16:59;;;;;;;;;;;21.00;38.80;;;;;;5056877;28;19916;-54
2023/05/18 02:19:25;;;;;;;;;;;20.90;38.70;;;;;;5058105;28;20011;-54
2023/05/18 02:21:50;;;;;;;;;;;20.90;38.70;;;;;;5067381;28;20406;-54
2023/05/18 02:24:17;;;;;;;;;;;20.90;38.80;;;;;;5091538;28;19916;-54
2023/05/18 02:26:42;;;;;;;;;;;20.90;38.70;;;;;;5076539;28;20393;-53
2023/05/18 02:29:10;;;;;;;;;;;20.90;38.80;;;;;;5071508;28;19947;-53
2023/05/18 02:31:39;;;;;;;;;;;20.90;38.70;;;;;;5070832;28;19912;-54
2023/05/18 02:34:04;;;;;;;;;;;20.90;38.70;;;;;;5082007;28;19912;-54
2023/05/18 02:36:35;;;;;;;;;;;20.80;38.70;;;;;;5089904;28;19932;-54
2023/05/18 02:39:01;;;;;;;;;;;20.80;38.70;;;;;;5071588;28;19918;-54
2023/05/18 02:41:27;;;;;;;;;;;20.80;38.80;;;;;;5072760;28;20045;-54
2023/05/18 02:43:52;;;;;;;;;;;20.80;38.70;;;;;;5069580;28;19912;-54
2023/05/18 02:46:18;;;;;;;;;;;20.70;38.80;;;;;;5079931;28;19920;-54
2023/05/18 02:48:44;;;;;;;;;;;20.70;38.90;;;;;;5073902;28;19912;-54
2023/05/18 02:51:10;;;;;;;;;;;20.70;38.90;;;;;;5095696;28;19919;-54
2023/05/18 02:53:35;;;;;;;;;;;20.70;39.60;;;;;;5079941;28;19913;-54
2023/05/18 02:56:02;;;;;;;;;;;20.70;39.00;;;;;;5056917;28;19995;-54
2023/05/18 02:58:28;;;;;;;;;;;20.60;39.10;;;;;;5085698;28;19986;-54
2023/05/18 03:00:58;;;;;;;;;;;20.60;39.00;;;;;;5086189;28;20364;-54
2023/05/18 03:03:24;;;;;;;;;;;20.60;38.90;;;;;;5083306;28;19919;-54
2023/05/18 03:05:52;;;;;;;;;;;20.60;39.00;;;;;;5094061;28;19912;-53
2023/05/18 03:08:18;;;;;;;;;;;20.60;39.00;;;;;;5091772;28;19947;-54
2023/05/18 03:10:44;;;;;;;;;;;20.60;39.00;;;;;;5087785;28;19916;-54
2023/05/18 03:13:09;;;;;;;;;;;20.60;39.00;;;;;;5093001;28;20382;-54
2023/05/18 03:15:36;;;;;;;;;;;20.50;38.90;;;;;;5094965;28;19912;-54
2023/05/18 03:18:02;;;;;;;;;;;20.60;39.00;;;;;;5084766;28;19916;-54
2023/05/18 03:20:30;;;;;;;;;;;20.60;39.00;;;;;;5089590;28;19931;-54
2023/05/18 03:22:56;;;;;;;;;;;20.60;38.90;;;;;;5090645;28;19938;-53
2023/05/18 03:25:21;;;;;;;;;;;20.60;39.00;;;;;;5094327;28;19912;-54
2023/05/18 03:27:47;;;;;;;;;;;20.60;39.00;;;;;;5093503;28;19916;-53
2023/05/18 03:30:12;;;;;;;;;;;20.60;39.00;;;;;;5076705;28;19945;-54
2023/05/18 03:32:38;;;;;;;;;;;20.60;39.10;;;;;;5070356;28;19962;-55
2023/05/18 03:35:04;;;;;;;;;;;20.50;38.90;;;;;;5092033;28;20020;-55
2023/05/18 03:37:30;;;;;;;;;;;20.60;39.00;;;;;;5089397;28;20466;-55
2023/05/18 03:39:58;;;;;;;;;;;20.60;39.10;;;;;;5086144;28;19973;-55
2023/05/18 03:42:24;;;;;;;;;;;20.50;38.90;;;;;;5078320;28;19912;-55
2023/05/18 03:44:50;;;;;;;;;;;20.50;39.00;;;;;;5075209;28;20280;-55
2023/05/18 03:47:16;;;;;;;;;;;20.50;38.90;;;;;;5087440;28;20312;-55
2023/05/18 03:49:41;;;;;;;;;;;20.50;39.00;;;;;;5081158;28;19960;-55
2023/05/18 03:52:07;;;;;;;;;;;20.60;38.90;;;;;;5083729;28;20356;-55
2023/05/18 03:54:32;;;;;;;;;;;20.50;39.00;;;;;;5088014;28;20366;-55
2023/05/18 03:56:58;;;;;;;;;;;20.50;39.10;;;;;;5093845;28;20271;-55
2023/05/18 03:59:23;;;;;;;;;;;20.50;39.10;;;;;;5092087;28;19916;-56
2023/05/18 04:01:52;;;;;;;;;;;20.50;39.20;;;;;;5066572;28;19916;-55
2023/05/18 04:04:22;;;;;;;;;;;20.50;39.00;;;;;;5063331;28;19912;-55
2023/05/18 04:06:48;;;;;;;;;;;20.50;39.00;;;;;;5092256;28;19916;-55
2023/05/18 04:09:16;;;;;;;;;;;20.50;39.00;;;;;;5090342;28;19912;-55
2023/05/18 04:11:41;;;;;;;;;;;20.50;39.00;;;;;;5085032;28;19920;-55
2023/05/18 04:14:10;;;;;;;;;;;20.50;39.00;;;;;;5091124;28;19916;-55
2023/05/18 04:16:35;;;;;;;;;;;20.50;39.00;;;;;;5084058;28;19917;-55
2023/05/18 04:19:02;;;;;;;;;;;20.50;39.00;;;;;;5090415;28;20412;-55
2023/05/18 04:21:34;;;;;;;;;;;20.50;39.00;;;;;;5085919;28;20368;-55
2023/05/18 04:24:03;;;;;;;;;;;20.50;39.20;;;;;;5087986;28;19912;-55
2023/05/18 04:26:29;;;;;;;;;;;20.50;39.00;;;;;;5088726;28;19934;-55
2023/05/18 04:28:58;;;;;;;;;;;20.50;39.00;;;;;;5090835;28;20356;-55
2023/05/18 04:31:25;;;;;;;;;;;20.50;38.90;;;;;;5084143;28;20817;-55
2023/05/18 04:33:51;;;;;;;;;;;20.40;39.00;;;;;;5086779;28;19920;-56
2023/05/18 04:36:18;;;;;;;;;;;20.40;38.80;;;;;;5083879;28;19923;-55
2023/05/18 04:38:44;;;;;;;;;;;20.40;38.90;;;;;;5087885;28;19919;-56
2023/05/18 04:41:09;;;;;;;;;;;20.40;38.80;;;;;;5064763;28;19912;-55
2023/05/18 04:43:35;;;;;;;;;;;20.40;38.90;;;;;;5086057;28;19916;-55
2023/05/18 04:46:00;;;;;;;;;;;20.40;38.90;;;;;;5092454;28;19935;-54
2023/05/18 04:48:28;;;;;;;;;;;20.40;39.00;;;;;;5091192;28;20055;-56
2023/05/18 04:50:54;;;;;;;;;;;20.40;38.80;;;;;;5091687;28;19916;-55
2023/05/18 04:53:23;;;;;;;;;;;20.40;39.00;;;;;;5074931;28;19912;-55
2023/05/18 04:55:48;;;;;;;;;;;20.40;39.00;;;;;;5091872;28;19954;-55
2023/05/18 04:58:14;;;;;;;;;;;20.40;39.30;;;;;;5081581;28;19948;-55
2023/05/18 05:00:39;;;;;;;;;;;20.40;39.30;;;;;;5074452;28;20367;-55
2023/05/18 05:03:05;;;;;;;;;;;20.30;39.30;;;;;;5092036;28;19918;-56
2023/05/18 05:05:30;;;;;;;;;;;20.40;39.30;;;;;;5089441;28;20449;-55
2023/05/18 05:07:57;;;;;;;;;;;20.40;39.70;;;;;;5088179;28;19995;-55
2023/05/18 05:10:23;;;;;;;;;;;20.40;38.90;;;;;;5088169;28;19916;-55
2023/05/18 05:12:48;;;;;;;;;;;20.30;38.90;;;;;;5060617;28;19920;-56
2023/05/18 05:15:14;;;;;;;;;;;20.30;38.90;;;;;;5072379;28;20002;-55
2023/05/18 05:17:39;;;;;;;;;;;20.30;39.00;;;;;;5082385;28;19920;-55
2023/05/18 05:20:05;;;;;;;;;;;20.40;38.80;;;;;;5078521;28;19912;-55
2023/05/18 05:22:30;;;;;;;;;;;20.40;38.80;;;;;;5050677;28;19916;-55
2023/05/18 05:24:56;;;;;;;;;;;20.40;38.80;;;;;;5092254;28;19919;-55
2023/05/18 05:27:22;;;;;;;;;;;20.30;38.80;;;;;;5052890;28;19969;-55
2023/05/18 05:29:49;;;;;;;;;;;20.30;38.90;;;;;;5089329;28;20291;-55
2023/05/18 05:32:15;;;;;;;;;;;20.30;39.00;;;;;;5078821;28;19923;-55
2023/05/18 05:34:44;;;;;;;;;;;20.30;38.90;;;;;;5070944;28;20318;-55
2023/05/18 05:37:09;;;;;;;;;;;20.30;39.10;;;;;;5090800;28;20296;-56
2023/05/18 05:39:35;;;;;;;;;;;20.30;39.00;;;;;;5076752;28;19919;-55
2023/05/18 05:42:00;;;;;;;;;;;20.30;38.70;;;;;;5086682;28;19920;-55
2023/05/18 05:44:26;;;;;;;;;;;20.30;39.00;;;;;;5090700;28;19912;-55
2023/05/18 05:46:51;;;;;;;;;;;20.40;39.00;;;;;;5091662;28;20322;-55
2023/05/18 05:49:17;;;;;;;;;;;20.30;39.00;;;;;;5090098;28;19982;-55
2023/05/18 05:51:42;;;;;;;;;;;20.30;38.90;;;;;;5089570;28;19912;-55
2023/05/18 05:54:08;;;;;;;;;;;20.30;38.90;;;;;;5092402;28;19934;-55
2023/05/18 05:56:33;;;;;;;;;;;20.30;38.90;;;;;;5090731;28;19912;-56
2023/05/18 05:58:59;;;;;;;;;;;20.40;39.50;;;;;;5090423;28;19912;-55
2023/05/18 06:01:26;;;;;;;;;;;20.30;38.90;;;;;;5068566;28;20344;-55
2023/05/18 06:03:51;;;;;;;;;;;20.30;38.90;;;;;;5085357;28;19916;-55
2023/05/18 06:06:17;;;;;;;;;;;20.30;38.90;;;;;;5091092;28;20387;-55
2023/05/18 06:08:42;;;;;;;;;;;20.30;38.70;;;;;;5090510;28;19927;-55
2023/05/18 06:11:08;;;;;;;;;;;20.30;38.80;;;;;;5088847;28;19912;-55
2023/05/18 06:13:33;;;;;;;;;;;20.30;38.80;;;;;;5068469;28;19916;-55
2023/05/18 06:15:58;;;;;;;;;;;20.30;38.90;;;;;;5069811;28;19913;-55
2023/05/18 06:18:24;;;;;;;;;;;20.30;38.90;;;;;;5087236;28;20050;-55
2023/05/18 06:20:50;;;;;;;;;;;20.40;38.90;;;;;;5083836;28;19955;-55
2023/05/18 06:23:21;;;;;;;;;;;20.30;38.70;;;;;;5094867;28;19960;-55
2023/05/18 06:25:46;;;;;;;;;;;20.30;38.60;;;;;;5100851;28;19912;-56
2023/05/18 06:28:12;;;;;;;;;;;20.30;38.70;;;;;;5093228;28;20011;-55
2023/05/18 06:30:37;;;;;;;;;;;20.40;39.40;;;;;;5075347;28;19912;-55
2023/05/18 06:33:03;;;;;;;;;;;20.40;38.90;;;;;;5092192;28;19916;-55
2023/05/18 06:35:28;;;;;;;;;;;20.30;38.70;;;;;;5085341;28;19916;-55
2023/05/18 06:37:54;;;;;;;;;;;20.30;38.80;;;;;;5064434;28;19919;-56
2023/05/18 06:40:19;;;;;;;;;;;20.30;38.70;;;;;;5087019;28;20304;-55
2023/05/18 06:42:45;;;;;;;;;;;20.30;39.40;;;;;;5090861;28;20003;-55
2023/05/18 06:45:10;;;;;;;;;;;20.30;38.80;;;;;;5092353;28;20356;-55
2023/05/18 06:47:36;;;;;;;;;;;20.30;39.00;;;;;;5079025;28;20307;-55
2023/05/18 06:50:02;;;;;;;;;;;20.30;39.10;;;;;;5076185;28;19923;-55
2023/05/18 06:52:28;;;;;;;;;;;20.30;38.90;;;;;;5091247;28;19916;-54
2023/05/18 06:54:53;;;;;;;;;;;20.30;38.90;;;;;;5081264;28;20360;-55
2023/05/18 06:57:19;;;;;;;;;;;20.30;38.70;;;;;;5085164;28;20257;-55
2023/05/18 06:59:45;;;;;;;;;;;20.30;38.80;;;;;;5091835;28;19990;-55
2023/05/18 07:02:10;;;;;;;;;;;20.30;38.90;;;;;;5093378;28;20333;-55
2023/05/18 07:04:36;;;;;;;;;;;20.30;38.70;;;;;;5090195;28;19935;-55
2023/05/18 07:07:01;;;;;;;;;;;20.30;38.70;;;;;;5084424;28;19920;-56
2023/05/18 07:09:27;;;;;;;;;;;20.30;38.70;;;;;;5095210;28;19951;-55
2023/05/18 07:11:52;;;;;;;;;;;20.30;38.70;;;;;;5096378;28;19923;-55
2023/05/18 07:14:18;;;;;;;;;;;20.30;38.70;;;;;;5083477;28;20284;-56
2023/05/18 07:16:46;;;;;;;;;;;20.40;38.90;;;;;;5090012;28;20374;-55
2023/05/18 07:19:11;;;;;;;;;;;20.30;38.80;;;;;;5091729;28;19916;-55
2023/05/18 07:21:37;;;;;;;;;;;20.40;38.90;;;;;;5076108;28;19923;-55
2023/05/18 07:24:02;;;;;;;;;;;20.40;39.00;;;;;;5093871;28;19920;-55
2023/05/18 07:26:28;;;;;;;;;;;20.30;38.70;;;;;;5075762;28;19916;-55
2023/05/18 07:28:54;;;;;;;;;;;20.40;38.70;;;;;;5057704;28;19913;-55
2023/05/18 07:31:20;;;;;;;;;;;20.40;38.70;;;;;;5093291;28;20003;-55
2023/05/18 07:33:46;;;;;;;;;;;20.40;38.70;;;;;;5083220;28;19962;-55
2023/05/18 07:36:12;;;;;;;;;;;20.40;38.70;;;;;;5076112;28;20282;-55
2023/05/18 07:38:38;;;;;;;;;;;20.40;38.80;;;;;;5089170;28;19916;-55
2023/05/18 07:41:03;;;;;;;;;;;20.40;38.70;;;;;;5074769;28;19909;-55
2023/05/18 07:43:28;;;;;;;;;;;20.40;38.70;;;;;;5077162;28;19928;-55
2023/05/18 07:45:54;;;;;;;;;;;20.40;38.80;;;;;;5090770;28;20311;-55
2023/05/18 07:48:19;;;;;;;;;;;20.40;38.70;;;;;;5091835;28;20378;-55
2023/05/18 07:50:45;;;;;;;;;;;20.40;38.70;;;;;;5085165;28;19947;-54
2023/05/18 07:53:10;;;;;;;;;;;20.40;38.70;;;;;;5088087;28;19924;-54
2023/05/18 07:55:36;;;;;;;;;;;20.50;38.90;;;;;;5067093;28;19956;-54
2023/05/18 07:58:01;;;;;;;;;;;20.60;38.80;;;;;;5090202;28;19916;-53
2023/05/18 08:00:27;;;;;;;;;;;20.70;38.60;;;;;;5078789;28;19952;-54
2023/05/18 08:02:52;;;;;;;;;;;20.70;38.70;;;;;;5064368;28;19912;-54
2023/05/18 08:05:21;;;;;;;;;;;20.70;39.10;;;;;;5087018;28;20433;-54
2023/05/18 08:07:46;;;;;;;;;;;21.00;39.00;;;;;;5085214;28;19912;-54
2023/05/18 08:10:12;;;;;;;;;;;21.40;38.40;;;;;;5084623;28;19930;-54
2023/05/18 08:12:37;;;;;;;;;;;21.70;37.90;;;;;;5085750;28;20376;-54
2023/05/18 08:15:03;;;;;;;;;;;21.80;37.70;;;;;;5084508;28;19912;-54
2023/05/18 08:17:28;;;;;;;;;;;21.90;37.80;;;;;;5089258;28;19951;-55
2023/05/18 08:19:54;;;;;;;;;;;22.10;37.60;;;;;;5082925;28;19965;-53
2023/05/18 08:22:19;;;;;;;;;;;22.40;37.00;;;;;;5083401;28;20038;-53
2023/05/18 08:24:45;;;;;;;;;;;22.70;36.50;;;;;;5086478;28;19909;-53
2023/05/18 08:27:11;;;;;;;;;;;23.10;36.00;;;;;;5081919;28;19920;-54
2023/05/18 08:29:36;;;;;;;;;;;23.30;35.80;;;;;;5087285;28;19949;-55
2023/05/18 08:32:04;;;;;;;;;;;23.50;35.70;;;;;;5082775;28;19927;-54
2023/05/18 08:34:30;;;;;;;;;;;23.50;35.50;;;;;;5087336;28;19908;-54
2023/05/18 08:36:55;;;;;;;;;;;23.50;35.60;;;;;;5087187;28;20447;-54
2023/05/18 08:39:21;;;;;;;;;;;23.70;35.60;;;;;;5090405;28;19928;-54
2023/05/18 08:41:54;;;;;;;;;;;23.60;35.80;;;;;;5086492;28;19923;-54
2023/05/18 08:44:20;;;;;;;;;;;23.40;35.80;;;;;;5060882;28;19922;-53
2023/05/18 08:46:48;;;;;;;;;;;23.20;36.10;;;;;;5080029;28;20355;-53
2023/05/18 08:49:15;;;;;;;;;;;23.00;36.60;;;;;;5084696;28;19912;-54
2023/05/18 08:51:40;;;;;;;;;;;22.80;36.90;;;;;;5083542;28;19912;-54
2023/05/18 08:54:06;;;;;;;;;;;22.70;37.10;;;;;;5068662;28;20334;-54
2023/05/18 08:56:34;;;;;;;;;;;22.50;37.50;;;;;;5084203;28;19927;-54
2023/05/18 08:59:03;;;;;;;;;;;22.40;37.80;;;;;;5083344;28;19934;-54
2023/05/18 09:01:30;;;;;;;;;;;22.30;37.90;;;;;;5084977;28;19955;-54
2023/05/18 09:03:56;;;;;;;;;;;22.20;38.00;;;;;;5055931;28;19913;-54
2023/05/18 09:06:23;;;;;;;;;;;22.10;38.40;;;;;;5089094;28;19961;-54
2023/05/18 09:08:50;;;;;;;;;;;21.90;38.50;;;;;;5091577;28;19924;-54
2023/05/18 09:11:15;;;;;;;;;;;21.90;38.70;;;;;;5092211;28;20291;-53
2023/05/18 09:13:40;;;;;;;;;;;21.80;39.10;;;;;;5066113;28;19935;-54
2023/05/18 09:16:06;;;;;;;;;;;21.80;39.20;;;;;;5084541;28;19920;-54
2023/05/18 09:18:32;;;;;;;;;;;21.70;39.40;;;;;;5084575;28;19920;-54
2023/05/18 09:20:57;;;;;;;;;;;21.70;39.50;;;;;;5092167;28;19912;-54
2023/05/18 09:23:23;;;;;;;;;;;21.70;39.70;;;;;;5095447;28;19912;-54
2023/05/18 09:25:48;;;;;;;;;;;21.80;39.60;;;;;;5088431;28;19923;-53
2023/05/18 09:28:24;;;;;;;;;;;21.90;39.50;;;;;;5067487;28;19920;-54
2023/05/18 09:30:52;;;;;;;;;;;21.90;39.30;;;;;;5082463;28;20009;-54
2023/05/18 09:33:18;;;;;;;;;;;22.10;39.30;;;;;;5083653;28;19994;-54
2023/05/18 09:35:44;;;;;;;;;;;22.20;39.20;;;;;;5085424;28;19920;-54
2023/05/18 09:38:09;;;;;;;;;;;22.30;39.20;;;;;;5068830;28;20008;-54
2023/05/18 09:40:35;;;;;;;;;;;22.40;39.00;;;;;;5086039;28;20007;-54
2023/05/18 09:43:05;;;;;;;;;;;22.50;38.80;;;;;;5086160;28;20375;-54
2023/05/18 09:45:30;;;;;;;;;;;22.60;38.70;;;;;;5081577;28;20034;-53
2023/05/18 09:47:56;;;;;;;;;;;22.70;38.60;;;;;;5080502;28;20034;-54
2023/05/18 09:50:22;;;;;;;;;;;22.70;38.60;;;;;;5087501;28;19986;-54
2023/05/18 09:52:48;;;;;;;;;;;22.70;38.70;;;;;;5067635;28;20019;-54
2023/05/18 09:55:14;;;;;;;;;;;22.70;39.00;;;;;;5093224;28;19990;-53
2023/05/18 09:57:43;;;;;;;;;;;22.60;39.90;;;;;;5089375;28;19919;-55
2023/05/18 10:00:12;;;;;;;;;;;22.50;39.40;;;;;;5093596;28;19912;-55
2023/05/18 10:02:38;;;;;;;;;;;22.50;39.60;;;;;;5055790;28;20339;-54
2023/05/18 10:05:03;;;;;;;;;;;22.40;39.90;;;;;;5088875;28;19919;-54
2023/05/18 10:07:30;;;;;;;;;;;22.30;40.10;;;;;;5090388;28;19916;-55
2023/05/18 10:10:02;;;;;;;;;;;22.20;40.10;;;;;;5073837;28;19920;-55
2023/05/18 10:12:27;;;;;;;;;;;22.20;40.30;;;;;;5098493;28;19920;-55
2023/05/18 10:14:53;;;;;;;;;;;22.10;40.20;;;;;;5070484;28;19916;-55
2023/05/18 10:17:18;;;;;;;;;;;22.10;40.50;;;;;;5090374;28;19927;-55
2023/05/18 10:19:44;;;;;;;;;;;22.10;40.60;;;;;;5095607;28;20394;-56
2023/05/18 10:22:09;;;;;;;;;;;22.00;40.50;;;;;;5070218;28;19912;-56
2023/05/18 10:24:38;;;;;;;;;;;22.10;40.70;;;;;;5074997;28;19912;-55
2023/05/18 10:27:05;;;;;;;;;;;22.00;40.60;;;;;;5086606;28;20595;-55
2023/05/18 10:29:31;;;;;;;;;;;22.00;40.70;;;;;;5099186;28;20001;-55
2023/05/18 10:32:01;;;;;;;;;;;22.10;40.80;;;;;;5096921;28;19966;-55
2023/05/18 10:34:27;;;;;;;;;;;22.10;40.80;;;;;;5070614;28;19920;-55
2023/05/18 10:36:53;;;;;;;;;;;22.10;40.70;;;;;;5089535;28;20007;-55
2023/05/18 10:39:18;;;;;;;;;;;22.20;40.60;;;;;;5093009;28;19912;-55
2023/05/18 10:41:44;;;;;;;;;;;22.30;40.50;;;;;;5077857;28;19996;-55
2023/05/18 10:44:09;;;;;;;;;;;22.30;40.40;;;;;;5096196;28;19912;-56
2023/05/18 10:46:35;;;;;;;;;;;22.40;40.50;;;;;;5091184;28;20357;-55
2023/05/18 10:49:01;;;;;;;;;;;22.40;40.40;;;;;;5091788;28;19986;-55
2023/05/18 10:51:27;;;;;;;;;;;22.50;40.40;;;;;;5095603;28;19916;-56
2023/05/18 10:53:53;;;;;;;;;;;22.50;40.10;;;;;;5095795;28;19916;-55
2023/05/18 10:56:18;;;;;;;;;;;22.50;40.20;;;;;;5079667;28;20003;-55
2023/05/18 10:58:44;;;;;;;;;;;22.50;40.00;;;;;;5091914;28;19912;-55
2023/05/18 11:01:09;;;;;;;;;;;22.60;39.90;;;;;;5085509;28;19930;-56
2023/05/18 11:03:35;;;;;;;;;;;22.60;39.80;;;;;;5068379;28;19924;-55
2023/05/18 11:06:02;;;;;;;;;;;22.60;39.70;;;;;;5094922;28;20412;-55
2023/05/18 11:08:27;;;;;;;;;;;22.60;39.70;;;;;;5086989;28;20330;-55
2023/05/18 11:11:02;;;;;;;;;;;22.60;39.60;;;;;;5079984;28;19920;-55
2023/05/18 11:13:28;;;;;;;;;;;22.60;39.50;;;;;;5063837;28;19916;-55
2023/05/18 11:15:54;;;;;;;;;;;22.60;39.70;;;;;;5084668;28;20365;-55
2023/05/18 11:18:20;;;;;;;;;;;22.60;39.90;;;;;;5078880;28;19912;-55
2023/05/18 11:20:45;;;;;;;;;;;22.60;40.00;;;;;;5071597;28;20039;-55
2023/05/18 11:23:13;;;;;;;;;;;22.60;40.10;;;;;;5068485;28;19960;-56
2023/05/18 11:25:39;;;;;;;;;;;22.60;40.20;;;;;;5068208;28;20376;-55
2023/05/18 11:28:06;;;;;;;;;;;22.60;39.90;;;;;;5063209;28;20057;-55
2023/05/18 11:30:31;;;;;;;;;;;22.60;39.90;;;;;;5079773;28;19922;-56
2023/05/18 11:33:16;;;;;;;;;;;22.60;40.10;;;;;;5084033;28;19924;-55
2023/05/18 11:35:57;;;;;;;;;;;22.60;40.10;;;;;;5081176;28;20443;-55
2023/05/18 11:38:26;;;;;;;;;;;22.60;40.30;;;;;;5085629;28;19920;-55
2023/05/18 11:40:52;;;;;;;;;;;22.60;40.40;;;;;;5085890;28;19963;-55
2023/05/18 11:43:20;;;;;;;;;;;22.60;40.50;;;;;;5088314;28;19948;-55
2023/05/18 11:45:53;;;;;;;;;;;22.60;40.60;;;;;;5072047;28;19916;-55
2023/05/18 11:48:24;;;;;;;;;;;22.60;40.60;;;;;;5086919;28;20428;-55
2023/05/18 11:50:53;;;;;;;;;;;22.60;40.30;;;;;;5085545;28;19913;-55
2023/05/18 11:53:21;;;;;;;;;;;22.60;40.30;;;;;;5090726;28;19916;-55
2023/05/18 11:55:46;;;;;;;;;;;22.60;40.40;;;;;;5089919;28;20019;-54
2023/05/18 11:58:17;;;;;;;;;;;22.70;40.60;;;;;;5068812;28;20006;-54
2023/05/18 12:00:43;;;;;;;;;;;22.70;40.50;;;;;;5092278;28;19912;-55
2023/05/18 12:03:09;;;;;;;;;;;22.70;40.50;;;;;;5090894;28;20434;-55
2023/05/18 12:05:34;;;;;;;;;;;22.70;40.50;;;;;;5070261;28;19977;-55
2023/05/18 12:08:00;;;;;;;;;;;22.70;40.60;;;;;;5088299;28;19921;-55
2023/05/18 12:10:25;;;;;;;;;;;22.70;40.70;;;;;;5070484;28;19948;-54
2023/05/18 12:12:51;;;;;;;;;;;22.70;40.40;;;;;;5092406;28;19954;-55
2023/05/18 12:15:20;;;;;;;;;;;22.70;40.40;;;;;;5091165;28;20479;-54
2023/05/18 12:17:46;;;;;;;;;;;22.80;40.50;;;;;;5110293;28;19919;-55
2023/05/18 12:20:12;;;;;;;;;;;22.70;40.50;;;;;;5052233;28;19916;-54
2023/05/18 12:22:41;;;;;;;;;;;22.80;40.60;;;;;;5072070;28;20332;-55
2023/05/18 12:25:06;;;;;;;;;;;22.80;40.70;;;;;;5093707;28;19915;-54
2023/05/18 12:27:39;;;;;;;;;;;22.80;40.60;;;;;;5072869;28;20295;-55
2023/05/18 12:30:25;;;;;;;;;;;22.80;40.50;;;;;;5076034;28;19970;-54
2023/05/18 12:32:52;;;;;;;;;;;22.80;40.30;;;;;;5089428;28;19993;-54
2023/05/18 12:35:27;;;;;;;;;;;22.80;40.30;;;;;;5078951;28;20376;-54
2023/05/18 12:37:54;;;;;;;;;;;22.80;40.20;;;;;;5092192;28;19922;-54
2023/05/18 12:40:20;;;;;;;;;;;22.80;40.20;;;;;;5093656;28;19957;-54
2023/05/18 12:42:55;;;;;;;;;;;22.80;40.10;;;;;;5091511;28;19916;-54
2023/05/18 12:45:33;;;;;;;;;;;22.80;40.00;;;;;;5092936;28;19943;-55
2023/05/18 12:48:08;;;;;;;;;;;22.80;40.00;;;;;;5091886;28;20265;-55
2023/05/18 12:50:35;;;;;;;;;;;22.90;40.00;;;;;;5093734;28;19926;-55
2023/05/18 12:53:01;;;;;;;;;;;22.80;40.70;;;;;;5087607;28;19916;-54
2023/05/18 12:55:27;;;;;;;;;;;22.80;40.10;;;;;;5093496;28;19912;-54
2023/05/18 12:58:02;;;;;;;;;;;22.80;40.10;;;;;;5057699;28;19981;-55
2023/05/18 13:00:33;;;;;;;;;;;22.80;40.10;;;;;;5077144;28;20360;-54
2023/05/18 13:03:09;;;;;;;;;;;22.80;40.10;;;;;;5074185;28;19912;-55
2023/05/18 13:05:34;;;;;;;;;;;22.80;40.10;;;;;;5092036;28;19916;-54
2023/05/18 13:08:00;;;;;;;;;;;22.90;40.00;;;;;;5065796;28;19957;-54
2023/05/18 13:10:27;;;;;;;;;;;22.90;39.90;;;;;;5090622;28;19960;-55
2023/05/18 13:12:55;;;;;;;;;;;22.90;40.00;;;;;;5063170;28;19916;-54
2023/05/18 13:15:23;;;;;;;;;;;22.90;40.60;;;;;;5093710;28;19908;-55
2023/05/18 13:17:57;;;;;;;;;;;22.90;40.00;;;;;;5057449;28;19917;-55
2023/05/18 13:20:28;;;;;;;;;;;22.90;39.90;;;;;;5090274;28;20376;-54
2023/05/18 13:22:54;;;;;;;;;;;22.90;39.70;;;;;;5090662;28;19966;-54
2023/05/18 13:25:20;;;;;;;;;;;23.00;39.80;;;;;;5092311;28;19915;-55
2023/05/18 13:27:47;;;;;;;;;;;23.00;39.80;;;;;;5091164;28;19912;-54
2023/05/18 13:30:12;;;;;;;;;;;22.90;40.00;;;;;;5075359;28;19923;-54
2023/05/18 13:32:38;;;;;;;;;;;22.90;40.00;;;;;;5082096;28;20308;-54
2023/05/18 13:35:04;;;;;;;;;;;22.90;40.10;;;;;;5083506;28;19919;-55
2023/05/18 13:37:30;;;;;;;;;;;22.90;39.90;;;;;;5090771;28;19912;-54
2023/05/18 13:39:55;;;;;;;;;;;22.90;40.00;;;;;;5075045;28;19912;-54
2023/05/18 13:42:20;;;;;;;;;;;22.90;39.90;;;;;;5084672;28;20003;-54
2023/05/18 13:44:46;;;;;;;;;;;22.90;40.00;;;;;;5084649;28;19919;-54
2023/05/18 13:47:12;;;;;;;;;;;23.00;40.10;;;;;;5085497;28;19932;-54
2023/05/18 13:49:37;;;;;;;;;;;23.00;40.00;;;;;;5091101;28;20011;-54
2023/05/18 13:52:03;;;;;;;;;;;23.00;40.10;;;;;;5084373;28;19959;-54
2023/05/18 13:54:28;;;;;;;;;;;23.00;40.20;;;;;;5085739;28;20003;-54
2023/05/18 13:56:54;;;;;;;;;;;22.90;40.10;;;;;;5071566;28;19978;-54
2023/05/18 13:59:20;;;;;;;;;;;23.00;40.10;;;;;;5089312;28;19951;-54
2023/05/18 14:01:46;;;;;;;;;;;23.00;40.10;;;;;;5071838;28;20387;-54
2023/05/18 14:04:11;;;;;;;;;;;23.00;40.00;;;;;;5092444;28;19920;-54
2023/05/18 14:06:37;;;;;;;;;;;23.00;40.00;;;;;;5087873;28;19917;-53
2023/05/18 14:09:02;;;;;;;;;;;23.00;40.00;;;;;;5067698;28;20003;-53
2023/05/18 14:11:28;;;;;;;;;;;23.00;40.00;;;;;;5093050;28;19912;-54
2023/05/18 14:13:53;;;;;;;;;;;23.00;40.10;;;;;;5078424;28;20321;-54